createdAt,value
2018-05-02T00:00:32.508Z,11.30
2018-05-02T00:05:35.751Z,11.30
2018-05-02T00:10:40.108Z,11.30
2018-05-02T00:15:43.377Z,11.30
2018-05-02T00:20:46.706Z,11.20
2018-05-02T00:25:50.347Z,11.20
2018-05-02T00:30:53.819Z,11.20
2018-05-02T00:35:57.563Z,11.20
2018-05-02T00:41:00.988Z,11.20
2018-05-02T00:46:04.261Z,11.00
2018-05-02T00:51:08.535Z,11.00
2018-05-02T00:56:11.779Z,11.10
2018-05-02T01:01:15.008Z,11.10
2018-05-02T01:06:18.311Z,11.00
2018-05-02T01:11:21.932Z,10.90
2018-05-02T01:16:25.552Z,10.80
2018-05-02T01:21:29.171Z,10.80
2018-05-02T01:26:32.428Z,10.80
2018-05-02T01:31:35.653Z,10.80
2018-05-02T01:36:38.888Z,10.70
2018-05-02T01:41:42.138Z,10.70
2018-05-02T01:46:45.355Z,10.70
2018-05-02T01:51:48.685Z,10.70
2018-05-02T01:56:51.894Z,10.70
2018-05-02T02:01:55.106Z,10.60
2018-05-02T02:06:58.724Z,10.50
2018-05-02T02:12:02.383Z,10.50
2018-05-02T02:17:05.666Z,10.50
2018-05-02T02:22:08.888Z,10.50
2018-05-02T02:27:12.110Z,10.40
2018-05-02T02:32:15.357Z,10.50
2018-05-02T02:37:19.007Z,10.40
2018-05-02T02:42:22.380Z,10.50
2018-05-02T02:47:26.028Z,10.40
2018-05-02T02:52:29.271Z,10.40
2018-05-02T02:57:32.605Z,10.40
2018-05-02T03:02:36.265Z,10.40
2018-05-02T03:07:39.728Z,10.40
2018-05-02T03:12:42.956Z,10.30
2018-05-02T03:17:46.625Z,10.20
2018-05-02T03:22:49.859Z,10.20
2018-05-02T03:27:53.163Z,10.10
2018-05-02T03:32:56.474Z,10.10
2018-05-02T03:38:00.135Z,10.00
2018-05-02T03:43:03.351Z,10.00
2018-05-02T03:48:06.559Z,10.00
2018-05-02T03:53:09.875Z,10.00
2018-05-02T03:58:13.098Z,10.00
2018-05-02T04:03:37.856Z,10.00
2018-05-02T04:08:41.305Z,9.90
2018-05-02T04:13:44.541Z,10.00
2018-05-02T04:18:48.193Z,10.00
2018-05-02T04:23:51.432Z,10.00
2018-05-02T04:28:54.731Z,9.90
2018-05-02T04:33:58.085Z,9.90
2018-05-02T04:39:01.798Z,10.00
2018-05-02T04:44:05.441Z,10.00
2018-05-02T04:49:08.656Z,10.00
2018-05-02T04:54:11.904Z,10.00
2018-05-02T04:59:15.144Z,10.00
2018-05-02T05:04:18.359Z,10.00
2018-05-02T05:09:21.651Z,10.00
2018-05-02T05:14:24.953Z,10.00
2018-05-02T05:19:28.585Z,10.10
2018-05-02T05:24:31.810Z,10.10
2018-05-02T05:29:35.069Z,10.10
2018-05-02T05:34:38.800Z,10.20
2018-05-02T05:39:45.051Z,10.20
2018-05-02T05:44:49.049Z,10.30
2018-05-02T05:49:52.268Z,10.30
2018-05-02T05:54:55.498Z,10.40
2018-05-02T05:59:58.727Z,10.50
2018-05-02T06:05:01.955Z,10.60
2018-05-02T06:10:05.187Z,10.60
2018-05-02T06:15:08.410Z,10.80
2018-05-02T06:20:11.859Z,10.90
2018-05-02T06:25:16.395Z,11.10
2018-05-02T06:30:19.618Z,11.10
2018-05-02T06:35:22.879Z,11.30
2018-05-02T06:40:26.505Z,11.70
2018-05-02T06:45:30.142Z,11.90
2018-05-02T06:50:33.362Z,11.90
2018-05-02T06:55:36.605Z,12.40
2018-05-02T07:00:39.811Z,12.70
2018-05-02T07:05:43.052Z,12.90
2018-05-02T07:10:46.748Z,12.90
2018-05-02T07:15:50.017Z,12.90
2018-05-02T07:20:53.362Z,12.80
2018-05-02T07:25:56.596Z,12.60
2018-05-02T07:30:59.820Z,12.70
2018-05-02T07:36:03.087Z,12.70
2018-05-02T07:41:06.706Z,13.00
2018-05-02T07:46:10.461Z,13.20
2018-05-02T07:51:13.671Z,13.20
2018-05-02T07:56:16.880Z,13.30
2018-05-02T08:01:20.106Z,13.60
2018-05-02T08:06:23.326Z,13.70
2018-05-02T08:11:26.548Z,13.70
2018-05-02T08:16:30.254Z,13.90
2018-05-02T08:21:33.436Z,13.80
2018-05-02T08:26:36.746Z,14.20
2018-05-02T08:31:39.987Z,14.30
2018-05-02T08:36:43.635Z,14.70
2018-05-02T08:41:46.839Z,14.70
2018-05-02T08:46:50.051Z,15.00
2018-05-02T08:51:53.267Z,15.00
2018-05-02T08:56:56.493Z,15.60
2018-05-02T09:01:59.742Z,15.80
2018-05-02T11:33:51.020Z,15.50
2018-05-02T11:38:54.840Z,15.80
2018-05-02T11:43:58.660Z,16.80
2018-05-02T11:49:02.479Z,17.90
2018-05-02T11:54:06.299Z,20.60
2018-05-02T11:59:10.118Z,22.00
2018-05-02T12:04:14.962Z,20.60
2018-05-02T12:09:19.977Z,22.30
2018-05-02T12:14:23.419Z,22.30
2018-05-02T12:19:27.687Z,24.30
2018-05-02T12:24:31.476Z,24.80
2018-05-02T12:29:35.701Z,23.10
2018-05-02T12:34:39.785Z,24.80
2018-05-02T12:39:43.542Z,24.80
2018-05-02T12:44:47.000Z,24.50
2018-05-02T12:50:04.648Z,23.60
2018-05-02T12:55:09.847Z,21.00
2018-05-02T13:00:13.667Z,20.20
2018-05-02T13:05:17.894Z,19.70
2018-05-02T13:10:22.781Z,19.50
2018-05-02T13:15:26.749Z,19.60
2018-05-02T13:20:30.685Z,18.80
2018-05-02T13:25:34.507Z,19.80
2018-05-02T13:30:37.915Z,19.80
2018-05-02T13:35:41.733Z,19.90
2018-05-02T13:40:45.553Z,20.30
2018-05-02T13:45:49.384Z,20.70
2018-05-02T13:50:53.396Z,20.50
2018-05-02T13:55:57.772Z,19.70
2018-05-02T14:01:01.470Z,19.70
2018-05-02T14:06:04.857Z,19.10
2018-05-02T14:11:08.592Z,19.70
2018-05-02T14:16:12.290Z,20.40
2018-05-02T14:21:15.598Z,20.40
2018-05-02T14:26:18.809Z,20.60
2018-05-02T14:31:22.949Z,19.50
2018-05-02T14:36:26.179Z,19.50
2018-05-02T14:41:29.423Z,19.10
2018-05-02T14:46:32.655Z,19.80
2018-05-02T14:51:36.785Z,20.70
2018-05-02T14:56:41.606Z,20.30
2018-05-02T15:01:44.928Z,20.30
2018-05-02T15:06:49.053Z,22.40
2018-05-02T15:11:52.887Z,22.00
2018-05-02T15:16:56.346Z,22.00
2018-05-02T15:21:59.999Z,19.90
2018-05-02T15:27:03.934Z,18.00
2018-05-02T15:32:07.287Z,18.10
2018-05-02T15:37:10.511Z,17.80
2018-05-02T15:42:14.185Z,17.80
2018-05-02T15:47:17.605Z,17.90
2018-05-02T15:52:21.079Z,18.00
2018-05-02T15:57:24.352Z,17.70
2018-05-02T16:02:27.583Z,17.50
2018-05-02T16:07:30.914Z,17.20
2018-05-02T16:12:34.537Z,17.10
2018-05-02T16:17:37.841Z,17.10
2018-05-02T16:22:41.059Z,17.10
2018-05-02T16:27:44.349Z,17.00
2018-05-02T16:32:47.820Z,16.90
2018-05-02T16:37:51.065Z,16.70
2018-05-02T16:42:54.814Z,16.50
2018-05-02T16:47:58.051Z,16.50
2018-05-02T16:53:01.412Z,16.40
2018-05-02T16:58:04.684Z,16.50
2018-05-02T17:03:07.921Z,16.50
2018-05-02T17:08:11.155Z,16.60
2018-05-02T17:13:14.379Z,16.60
2018-05-02T17:18:17.622Z,16.60
2018-05-02T17:23:21.250Z,16.30
2018-05-02T17:28:24.505Z,16.30
2018-05-02T17:33:27.822Z,16.20
2018-05-02T17:38:31.972Z,16.00
2018-05-02T17:43:35.681Z,15.60
2018-05-02T17:48:39.379Z,15.60
2018-05-02T17:53:42.781Z,15.40
2018-05-02T17:58:46.117Z,15.10
2018-05-02T18:03:49.827Z,14.60
2018-05-02T18:08:55.821Z,14.60
2018-05-02T18:14:02.605Z,14.40
2018-05-02T18:19:06.212Z,14.40
2018-05-02T18:24:10.130Z,14.30
2018-05-02T18:29:13.940Z,14.20
2018-05-02T18:34:17.540Z,14.20
2018-05-02T18:39:20.852Z,14.00
2018-05-02T18:44:24.300Z,14.00
2018-05-02T18:49:28.077Z,13.70
2018-05-02T18:54:31.627Z,13.70
2018-05-02T18:59:35.333Z,13.50
2018-05-02T19:04:38.773Z,13.50
2018-05-02T19:09:42.047Z,13.40
2018-05-02T19:14:45.865Z,13.20
2018-05-02T19:19:55.036Z,13.20
2018-05-02T19:30:34.163Z,13.20
2018-05-02T19:35:37.677Z,13.20
2018-05-02T19:40:46.507Z,13.20
2018-05-02T19:45:49.956Z,13.10
2018-05-02T19:50:59.912Z,13.20
2018-05-02T19:56:03.639Z,13.30
2018-05-02T20:01:12.772Z,13.30
2018-05-02T20:06:16.223Z,13.40
2018-05-02T20:11:24.984Z,13.30
2018-05-02T20:16:28.484Z,13.30
2018-05-02T20:21:31.991Z,13.20
2018-05-02T20:26:35.462Z,13.20
2018-05-02T20:31:38.862Z,13.20
2018-05-02T20:36:42.123Z,13.20
2018-05-02T20:41:45.627Z,13.10
2018-05-02T20:46:48.992Z,13.20
2018-05-02T20:51:52.912Z,13.20
2018-05-02T20:56:56.356Z,13.20
2018-05-02T21:01:59.854Z,13.30
2018-05-02T21:07:03.480Z,13.20
2018-05-02T21:12:06.883Z,13.20
2018-05-02T21:17:10.490Z,13.20
2018-05-02T21:22:14.407Z,13.20
2018-05-02T21:27:18.830Z,13.20
2018-05-02T21:32:22.508Z,13.20
2018-05-02T21:37:25.754Z,13.20
2018-05-02T21:42:29.427Z,13.10
2018-05-02T21:47:32.796Z,13.10
2018-05-02T21:52:36.598Z,13.10
2018-05-02T21:57:39.902Z,13.10
2018-05-02T22:02:43.443Z,13.00
2018-05-02T22:07:46.868Z,12.90
2018-05-02T22:12:50.267Z,12.90
2018-05-02T22:17:53.620Z,12.90
2018-05-02T22:22:57.145Z,12.80
2018-05-02T22:28:01.503Z,12.70
2018-05-02T22:33:04.745Z,12.70
2018-05-02T22:38:08.104Z,12.70
2018-05-02T22:43:11.864Z,12.70
2018-05-02T22:48:15.103Z,12.60
2018-05-02T22:53:23.633Z,12.60
2018-05-02T22:58:26.939Z,12.60
2018-05-02T23:03:30.207Z,12.70
2018-05-02T23:08:33.493Z,12.70
2018-05-02T23:13:38.136Z,12.70
2018-05-02T23:18:41.377Z,12.70
2018-05-02T23:23:44.734Z,12.60
2018-05-02T23:28:48.059Z,12.70
2018-05-02T23:33:53.396Z,12.80
2018-05-02T23:38:57.023Z,12.70
2018-05-02T23:44:00.664Z,12.70
2018-05-02T23:49:03.980Z,12.70
2018-05-02T23:59:42.203Z,12.50
